sensor_id;sensor_type;location;lat;lon;timestamp;P1;durP1;ratioP1;P2;durP2;ratioP2
51194;SDS011;37259;49.972;19.850;2023-02-15T00:00:40;48.1;;;33.7;;
51194;SDS011;37259;49.972;19.850;2023-02-15T00:01:40;48.1;;;33.7;;
51194;SDS011;37259;49.972;19.850;2023-02-15T00:02:40;48.1;;;33.7;;
51194;SDS011;37259;49.972;19.850;2023-02-15T00:03:40;48.1;;;33.7;;
51194;SDS011;37259;49.972;19.850;2023-02-15T00:04:40;48.1;;;33.7;;
51194;SDS011;37259;49.972;19.850;2023-02-15T00:05:40;48.1;;;33.7;;
51194;SDS011;37259;49.972;19.850;2023-02-15T00:06:40;48.1;;;33.7;;
51194;SDS011;37259;49.972;19.850;2023-02-15T00:07:40;48.1;;;33.7;;
51194;SDS011;37259;49.972;19.850;2023-02-15T00:08:40;48.1;;;33.7;;
51194;SDS011;37259;49.972;19.850;2023-02-15T00:09:40;48.1;;;33.7;;
51194;SDS011;37259;49.972;19.850;2023-02-15T00:10:40;48.1;;;33.7;;
51194;SDS011;37259;49.972;19.850;2023-02-15T00:11:40;48.1;;;33.7;;
51194;SDS011;37259;49.972;19.850;2023-02-15T00:12:40;48.1;;;33.7;;
51194;SDS011;37259;49.972;19.850;2023-02-15T00:13:40;44.2;;;29.4;;
51194;SDS011;37259;49.972;19.850;2023-02-15T00:14:40;44.2;;;29.4;;
51194;SDS011;37259;49.972;19.850;2023-02-15T00:15:40;44.2;;;29.4;;
51194;SDS011;37259;49.972;19.850;2023-02-15T00:16:41;44.2;;;29.4;;
51194;SDS011;37259;49.972;19.850;2023-02-15T00:17:40;44.2;;;29.4;;
51194;SDS011;37259;49.972;19.850;2023-02-15T00:18:40;44.2;;;29.4;;
51194;SDS011;37259;49.972;19.850;2023-02-15T00:19:40;44.2;;;29.4;;
51194;SDS011;37259;49.972;19.850;2023-02-15T00:20:40;44.2;;;29.4;;
51194;SDS011;37259;49.972;19.850;2023-02-15T00:21:40;44.2;;;29.4;;
51194;SDS011;37259;49.972;19.850;2023-02-15T00:22:40;44.2;;;29.4;;
51194;SDS011;37259;49.972;19.850;2023-02-15T00:23:40;44.2;;;29.4;;
51194;SDS011;37259;49.972;19.850;2023-02-15T00:24:40;44.2;;;29.4;;
51194;SDS011;37259;49.972;19.850;2023-02-15T00:25:40;44.2;;;29.4;;
51194;SDS011;37259;49.972;19.850;2023-02-15T00:26:40;44.2;;;29.4;;
51194;SDS011;37259;49.972;19.850;2023-02-15T00:27:40;44.2;;;29.4;;
51194;SDS011;37259;49.972;19.850;2023-02-15T00:28:40;44.2;;;29.4;;
51194;SDS011;37259;49.972;19.850;2023-02-15T00:29:40;44.2;;;29.4;;
51194;SDS011;37259;49.972;19.850;2023-02-15T00:30:40;44.2;;;29.4;;
51194;SDS011;37259;49.972;19.850;2023-02-15T00:31:40;44.2;;;29.4;;
51194;SDS011;37259;49.972;19.850;2023-02-15T00:32:40;44.2;;;29.4;;
51194;SDS011;37259;49.972;19.850;2023-02-15T00:33:40;44.2;;;29.4;;
51194;SDS011;37259;49.972;19.850;2023-02-15T00:34:40;44.2;;;29.4;;
51194;SDS011;37259;49.972;19.850;2023-02-15T00:35:40;44.2;;;29.4;;
51194;SDS011;37259;49.972;19.850;2023-02-15T00:36:40;44.2;;;29.4;;
51194;SDS011;37259;49.972;19.850;2023-02-15T00:37:40;44.2;;;29.4;;
51194;SDS011;37259;49.972;19.850;2023-02-15T00:38:40;44.2;;;29.4;;
51194;SDS011;37259;49.972;19.850;2023-02-15T00:39:40;44.2;;;29.4;;
51194;SDS011;37259;49.972;19.850;2023-02-15T00:40:40;44.2;;;29.4;;
51194;SDS011;37259;49.972;19.850;2023-02-15T00:41:40;44.2;;;29.4;;
51194;SDS011;37259;49.972;19.850;2023-02-15T00:42:40;44.2;;;29.4;;
51194;SDS011;37259;49.972;19.850;2023-02-15T00:43:40;39.7;;;27;;
51194;SDS011;37259;49.972;19.850;2023-02-15T00:44:40;39.7;;;27;;
51194;SDS011;37259;49.972;19.850;2023-02-15T00:45:40;39.7;;;27;;
51194;SDS011;37259;49.972;19.850;2023-02-15T00:46:40;39.7;;;27;;
51194;SDS011;37259;49.972;19.850;2023-02-15T00:47:40;39.7;;;27;;
51194;SDS011;37259;49.972;19.850;2023-02-15T00:48:40;39.7;;;27;;
51194;SDS011;37259;49.972;19.850;2023-02-15T00:49:40;39.7;;;27;;
51194;SDS011;37259;49.972;19.850;2023-02-15T00:50:40;39.7;;;27;;
51194;SDS011;37259;49.972;19.850;2023-02-15T00:51:40;39.7;;;27;;
51194;SDS011;37259;49.972;19.850;2023-02-15T00:52:40;39.7;;;27;;
51194;SDS011;37259;49.972;19.850;2023-02-15T00:53:40;39.7;;;27;;
51194;SDS011;37259;49.972;19.850;2023-02-15T00:54:40;39.7;;;27;;
51194;SDS011;37259;49.972;19.850;2023-02-15T00:55:40;39.7;;;27;;
51194;SDS011;37259;49.972;19.850;2023-02-15T00:56:40;39.7;;;27;;
51194;SDS011;37259;49.972;19.850;2023-02-15T00:57:40;39.7;;;27;;
51194;SDS011;37259;49.972;19.850;2023-02-15T00:58:40;39.7;;;27;;
51194;SDS011;37259;49.972;19.850;2023-02-15T00:59:40;39.7;;;27;;
51194;SDS011;37259;49.972;19.850;2023-02-15T01:00:41;39.7;;;27;;
51194;SDS011;37259;49.972;19.850;2023-02-15T01:01:40;39.7;;;27;;
51194;SDS011;37259;49.972;19.850;2023-02-15T01:02:40;39.7;;;27;;
51194;SDS011;37259;49.972;19.850;2023-02-15T01:03:40;39.7;;;27;;
51194;SDS011;37259;49.972;19.850;2023-02-15T01:04:40;39.7;;;27;;
51194;SDS011;37259;49.972;19.850;2023-02-15T01:05:40;39.7;;;27;;
51194;SDS011;37259;49.972;19.850;2023-02-15T01:06:40;39.7;;;27;;
51194;SDS011;37259;49.972;19.850;2023-02-15T01:07:40;39.7;;;27;;
51194;SDS011;37259;49.972;19.850;2023-02-15T01:08:40;39.7;;;27;;
51194;SDS011;37259;49.972;19.850;2023-02-15T01:09:40;39.7;;;27;;
51194;SDS011;37259;49.972;19.850;2023-02-15T01:10:40;39.7;;;27;;
51194;SDS011;37259;49.972;19.850;2023-02-15T01:11:40;39.7;;;27;;
51194;SDS011;37259;49.972;19.850;2023-02-15T01:12:40;39.7;;;27;;
51194;SDS011;37259;49.972;19.850;2023-02-15T01:13:40;23;;;17.6;;
51194;SDS011;37259;49.972;19.850;2023-02-15T01:14:40;23;;;17.6;;
51194;SDS011;37259;49.972;19.850;2023-02-15T01:15:40;23;;;17.6;;
51194;SDS011;37259;49.972;19.850;2023-02-15T01:16:40;23;;;17.6;;
51194;SDS011;37259;49.972;19.850;2023-02-15T01:17:40;23;;;17.6;;
51194;SDS011;37259;49.972;19.850;2023-02-15T01:18:40;23;;;17.6;;
51194;SDS011;37259;49.972;19.850;2023-02-15T01:19:40;23;;;17.6;;
51194;SDS011;37259;49.972;19.850;2023-02-15T01:20:40;23;;;17.6;;
51194;SDS011;37259;49.972;19.850;2023-02-15T01:21:40;23;;;17.6;;
51194;SDS011;37259;49.972;19.850;2023-02-15T01:22:40;23;;;17.6;;
51194;SDS011;37259;49.972;19.850;2023-02-15T01:23:40;23;;;17.6;;
51194;SDS011;37259;49.972;19.850;2023-02-15T01:24:40;23;;;17.6;;
51194;SDS011;37259;49.972;19.850;2023-02-15T01:25:40;23;;;17.6;;
51194;SDS011;37259;49.972;19.850;2023-02-15T01:26:40;23;;;17.6;;
51194;SDS011;37259;49.972;19.850;2023-02-15T01:27:40;23;;;17.6;;
51194;SDS011;37259;49.972;19.850;2023-02-15T01:28:40;23;;;17.6;;
51194;SDS011;37259;49.972;19.850;2023-02-15T01:29:40;23;;;17.6;;
51194;SDS011;37259;49.972;19.850;2023-02-15T01:30:40;23;;;17.6;;
51194;SDS011;37259;49.972;19.850;2023-02-15T01:31:40;23;;;17.6;;
51194;SDS011;37259;49.972;19.850;2023-02-15T01:32:40;23;;;17.6;;
51194;SDS011;37259;49.972;19.850;2023-02-15T01:33:40;23;;;17.6;;
51194;SDS011;37259;49.972;19.850;2023-02-15T01:34:40;23;;;17.6;;
51194;SDS011;37259;49.972;19.850;2023-02-15T01:35:40;23;;;17.6;;
51194;SDS011;37259;49.972;19.850;2023-02-15T01:36:40;23;;;17.6;;
51194;SDS011;37259;49.972;19.850;2023-02-15T01:37:40;23;;;17.6;;
51194;SDS011;37259;49.972;19.850;2023-02-15T01:38:40;23;;;17.6;;
51194;SDS011;37259;49.972;19.850;2023-02-15T01:39:40;23;;;17.6;;
51194;SDS011;37259;49.972;19.850;2023-02-15T01:40:40;23;;;17.6;;
51194;SDS011;37259;49.972;19.850;2023-02-15T01:41:40;23;;;17.6;;
51194;SDS011;37259;49.972;19.850;2023-02-15T01:42:40;23;;;17.6;;
51194;SDS011;37259;49.972;19.850;2023-02-15T01:43:45;19.4;;;13.7;;
51194;SDS011;37259;49.972;19.850;2023-02-15T01:44:45;19.4;;;13.7;;
51194;SDS011;37259;49.972;19.850;2023-02-15T01:45:40;19.4;;;13.7;;
51194;SDS011;37259;49.972;19.850;2023-02-15T01:46:40;19.4;;;13.7;;
51194;SDS011;37259;49.972;19.850;2023-02-15T01:47:41;19.4;;;13.7;;
51194;SDS011;37259;49.972;19.850;2023-02-15T01:48:41;19.4;;;13.7;;
51194;SDS011;37259;49.972;19.850;2023-02-15T01:49:40;19.4;;;13.7;;
51194;SDS011;37259;49.972;19.850;2023-02-15T01:50:40;19.4;;;13.7;;
51194;SDS011;37259;49.972;19.850;2023-02-15T01:51:40;19.4;;;13.7;;
51194;SDS011;37259;49.972;19.850;2023-02-15T01:52:40;19.4;;;13.7;;
51194;SDS011;37259;49.972;19.850;2023-02-15T01:53:40;19.4;;;13.7;;
51194;SDS011;37259;49.972;19.850;2023-02-15T01:54:40;19.4;;;13.7;;
51194;SDS011;37259;49.972;19.850;2023-02-15T01:55:42;19.4;;;13.7;;
51194;SDS011;37259;49.972;19.850;2023-02-15T01:56:40;19.4;;;13.7;;
51194;SDS011;37259;49.972;19.850;2023-02-15T01:57:40;19.4;;;13.7;;
51194;SDS011;37259;49.972;19.850;2023-02-15T01:58:40;19.4;;;13.7;;
51194;SDS011;37259;49.972;19.850;2023-02-15T01:59:40;19.4;;;13.7;;
51194;SDS011;37259;49.972;19.850;2023-02-15T02:00:40;19.4;;;13.7;;
51194;SDS011;37259;49.972;19.850;2023-02-15T02:01:40;19.4;;;13.7;;
51194;SDS011;37259;49.972;19.850;2023-02-15T02:02:40;19.4;;;13.7;;
51194;SDS011;37259;49.972;19.850;2023-02-15T02:03:43;19.4;;;13.7;;
51194;SDS011;37259;49.972;19.850;2023-02-15T02:04:41;19.4;;;13.7;;
51194;SDS011;37259;49.972;19.850;2023-02-15T02:05:40;19.4;;;13.7;;
51194;SDS011;37259;49.972;19.850;2023-02-15T02:06:40;19.4;;;13.7;;
51194;SDS011;37259;49.972;19.850;2023-02-15T02:07:41;19.4;;;13.7;;
51194;SDS011;37259;49.972;19.850;2023-02-15T02:08:41;19.4;;;13.7;;
51194;SDS011;37259;49.972;19.850;2023-02-15T02:09:40;19.4;;;13.7;;
51194;SDS011;37259;49.972;19.850;2023-02-15T02:10:40;19.4;;;13.7;;
51194;SDS011;37259;49.972;19.850;2023-02-15T02:11:40;19.4;;;13.7;;
51194;SDS011;37259;49.972;19.850;2023-02-15T02:12:40;22;;;14.2;;
51194;SDS011;37259;49.972;19.850;2023-02-15T02:13:40;22;;;14.2;;
51194;SDS011;37259;49.972;19.850;2023-02-15T02:14:40;22;;;14.2;;
51194;SDS011;37259;49.972;19.850;2023-02-15T02:15:56;22;;;14.2;;
51194;SDS011;37259;49.972;19.850;2023-02-15T02:16:42;22;;;14.2;;
51194;SDS011;37259;49.972;19.850;2023-02-15T02:17:42;22;;;14.2;;
51194;SDS011;37259;49.972;19.850;2023-02-15T02:18:41;22;;;14.2;;
51194;SDS011;37259;49.972;19.850;2023-02-15T02:20:50;22;;;14.2;;
51194;SDS011;37259;49.972;19.850;2023-02-15T02:21:02;22;;;14.2;;
51194;SDS011;37259;49.972;19.850;2023-02-15T02:21:46;22;;;14.2;;
51194;SDS011;37259;49.972;19.850;2023-02-15T02:22:46;22;;;14.2;;
51194;SDS011;37259;49.972;19.850;2023-02-15T02:23:43;22;;;14.2;;
51194;SDS011;37259;49.972;19.850;2023-02-15T02:24:44;22;;;14.2;;
51194;SDS011;37259;49.972;19.850;2023-02-15T02:26:18;22;;;14.2;;
51194;SDS011;37259;49.972;19.850;2023-02-15T02:27:01;22;;;14.2;;
51194;SDS011;37259;49.972;19.850;2023-02-15T02:27:40;22;;;14.2;;
51194;SDS011;37259;49.972;19.850;2023-02-15T02:28:46;22;;;14.2;;
51194;SDS011;37259;49.972;19.850;2023-02-15T02:30:17;22;;;14.2;;
51194;SDS011;37259;49.972;19.850;2023-02-15T02:30:45;22;;;14.2;;
51194;SDS011;37259;49.972;19.850;2023-02-15T02:31:47;22;;;14.2;;
51194;SDS011;37259;49.972;19.850;2023-02-15T02:32:46;22;;;14.2;;
51194;SDS011;37259;49.972;19.850;2023-02-15T02:33:43;22;;;14.2;;
51194;SDS011;37259;49.972;19.850;2023-02-15T02:34:41;22;;;14.2;;
51194;SDS011;37259;49.972;19.850;2023-02-15T02:35:43;22;;;14.2;;
51194;SDS011;37259;49.972;19.850;2023-02-15T02:36:41;22;;;14.2;;
51194;SDS011;37259;49.972;19.850;2023-02-15T02:37:43;22;;;14.2;;
51194;SDS011;37259;49.972;19.850;2023-02-15T02:38:42;22;;;14.2;;
51194;SDS011;37259;49.972;19.850;2023-02-15T02:39:42;22;;;14.2;;
51194;SDS011;37259;49.972;19.850;2023-02-15T02:40:43;22;;;14.2;;
51194;SDS011;37259;49.972;19.850;2023-02-15T02:41:43;22;;;14.2;;
51194;SDS011;37259;49.972;19.850;2023-02-15T02:42:41;22.3;;;14.2;;
51194;SDS011;37259;49.972;19.850;2023-02-15T02:43:42;22.3;;;14.2;;
51194;SDS011;37259;49.972;19.850;2023-02-15T02:44:41;22.3;;;14.2;;
51194;SDS011;37259;49.972;19.850;2023-02-15T02:45:40;22.3;;;14.2;;
51194;SDS011;37259;49.972;19.850;2023-02-15T02:46:44;22.3;;;14.2;;
51194;SDS011;37259;49.972;19.850;2023-02-15T02:47:41;22.3;;;14.2;;
51194;SDS011;37259;49.972;19.850;2023-02-15T02:48:40;22.3;;;14.2;;
51194;SDS011;37259;49.972;19.850;2023-02-15T02:49:41;22.3;;;14.2;;
51194;SDS011;37259;49.972;19.850;2023-02-15T02:50:40;22.3;;;14.2;;
51194;SDS011;37259;49.972;19.850;2023-02-15T02:51:40;22.3;;;14.2;;
51194;SDS011;37259;49.972;19.850;2023-02-15T02:52:41;22.3;;;14.2;;
51194;SDS011;37259;49.972;19.850;2023-02-15T02:53:40;22.3;;;14.2;;
51194;SDS011;37259;49.972;19.850;2023-02-15T02:54:40;22.3;;;14.2;;
51194;SDS011;37259;49.972;19.850;2023-02-15T02:55:40;22.3;;;14.2;;
51194;SDS011;37259;49.972;19.850;2023-02-15T02:56:41;22.3;;;14.2;;
51194;SDS011;37259;49.972;19.850;2023-02-15T02:57:41;22.3;;;14.2;;
51194;SDS011;37259;49.972;19.850;2023-02-15T02:58:41;22.3;;;14.2;;
51194;SDS011;37259;49.972;19.850;2023-02-15T02:59:41;22.3;;;14.2;;
51194;SDS011;37259;49.972;19.850;2023-02-15T03:00:43;22.3;;;14.2;;
51194;SDS011;37259;49.972;19.850;2023-02-15T03:01:41;22.3;;;14.2;;
51194;SDS011;37259;49.972;19.850;2023-02-15T03:02:41;22.3;;;14.2;;
51194;SDS011;37259;49.972;19.850;2023-02-15T03:03:40;22.3;;;14.2;;
51194;SDS011;37259;49.972;19.850;2023-02-15T03:04:41;22.3;;;14.2;;
51194;SDS011;37259;49.972;19.850;2023-02-15T03:05:41;22.3;;;14.2;;
51194;SDS011;37259;49.972;19.850;2023-02-15T03:06:40;22.3;;;14.2;;
51194;SDS011;37259;49.972;19.850;2023-02-15T03:07:40;22.3;;;14.2;;
51194;SDS011;37259;49.972;19.850;2023-02-15T03:08:41;22.3;;;14.2;;
51194;SDS011;37259;49.972;19.850;2023-02-15T03:09:41;22.3;;;14.2;;
51194;SDS011;37259;49.972;19.850;2023-02-15T03:10:40;22.3;;;14.2;;
51194;SDS011;37259;49.972;19.850;2023-02-15T03:11:41;22.3;;;14.2;;
51194;SDS011;37259;49.972;19.850;2023-02-15T03:12:40;21.9;;;13.7;;
51194;SDS011;37259;49.972;19.850;2023-02-15T03:13:40;21.9;;;13.7;;
51194;SDS011;37259;49.972;19.850;2023-02-15T03:14:40;21.9;;;13.7;;
51194;SDS011;37259;49.972;19.850;2023-02-15T03:15:41;21.9;;;13.7;;
51194;SDS011;37259;49.972;19.850;2023-02-15T03:16:40;21.9;;;13.7;;
51194;SDS011;37259;49.972;19.850;2023-02-15T03:17:40;21.9;;;13.7;;
51194;SDS011;37259;49.972;19.850;2023-02-15T03:18:41;21.9;;;13.7;;
51194;SDS011;37259;49.972;19.850;2023-02-15T03:19:40;21.9;;;13.7;;
51194;SDS011;37259;49.972;19.850;2023-02-15T03:20:40;21.9;;;13.7;;
51194;SDS011;37259;49.972;19.850;2023-02-15T03:21:42;21.9;;;13.7;;
51194;SDS011;37259;49.972;19.850;2023-02-15T03:22:41;21.9;;;13.7;;
51194;SDS011;37259;49.972;19.850;2023-02-15T03:23:40;21.9;;;13.7;;
51194;SDS011;37259;49.972;19.850;2023-02-15T03:24:41;21.9;;;13.7;;
51194;SDS011;37259;49.972;19.850;2023-02-15T03:25:40;21.9;;;13.7;;
51194;SDS011;37259;49.972;19.850;2023-02-15T03:26:41;21.9;;;13.7;;
51194;SDS011;37259;49.972;19.850;2023-02-15T03:27:41;21.9;;;13.7;;
51194;SDS011;37259;49.972;19.850;2023-02-15T03:28:41;21.9;;;13.7;;
51194;SDS011;37259;49.972;19.850;2023-02-15T03:29:40;21.9;;;13.7;;
51194;SDS011;37259;49.972;19.850;2023-02-15T03:30:41;21.9;;;13.7;;
51194;SDS011;37259;49.972;19.850;2023-02-15T03:31:41;21.9;;;13.7;;
51194;SDS011;37259;49.972;19.850;2023-02-15T03:32:40;21.9;;;13.7;;
51194;SDS011;37259;49.972;19.850;2023-02-15T03:33:41;21.9;;;13.7;;
51194;SDS011;37259;49.972;19.850;2023-02-15T03:34:40;21.9;;;13.7;;
51194;SDS011;37259;49.972;19.850;2023-02-15T03:35:42;21.9;;;13.7;;
51194;SDS011;37259;49.972;19.850;2023-02-15T03:36:43;21.9;;;13.7;;
51194;SDS011;37259;49.972;19.850;2023-02-15T03:37:41;21.9;;;13.7;;
51194;SDS011;37259;49.972;19.850;2023-02-15T03:38:41;21.9;;;13.7;;
51194;SDS011;37259;49.972;19.850;2023-02-15T03:39:42;21.9;;;13.7;;
51194;SDS011;37259;49.972;19.850;2023-02-15T03:40:41;21.9;;;13.7;;
51194;SDS011;37259;49.972;19.850;2023-02-15T03:41:41;21.9;;;13.7;;
51194;SDS011;37259;49.972;19.850;2023-02-15T03:42:40;19.9;;;13.4;;
51194;SDS011;37259;49.972;19.850;2023-02-15T03:43:43;19.9;;;13.4;;
51194;SDS011;37259;49.972;19.850;2023-02-15T03:44:43;19.9;;;13.4;;
51194;SDS011;37259;49.972;19.850;2023-02-15T03:45:40;19.9;;;13.4;;
51194;SDS011;37259;49.972;19.850;2023-02-15T03:46:42;19.9;;;13.4;;
51194;SDS011;37259;49.972;19.850;2023-02-15T03:47:42;19.9;;;13.4;;
51194;SDS011;37259;49.972;19.850;2023-02-15T03:48:41;19.9;;;13.4;;
51194;SDS011;37259;49.972;19.850;2023-02-15T03:49:41;19.9;;;13.4;;
51194;SDS011;37259;49.972;19.850;2023-02-15T03:50:40;19.9;;;13.4;;
51194;SDS011;37259;49.972;19.850;2023-02-15T03:51:40;19.9;;;13.4;;
51194;SDS011;37259;49.972;19.850;2023-02-15T03:52:40;19.9;;;13.4;;
51194;SDS011;37259;49.972;19.850;2023-02-15T03:53:41;19.9;;;13.4;;
51194;SDS011;37259;49.972;19.850;2023-02-15T03:54:40;19.9;;;13.4;;
51194;SDS011;37259;49.972;19.850;2023-02-15T03:55:40;19.9;;;13.4;;
51194;SDS011;37259;49.972;19.850;2023-02-15T03:56:41;19.9;;;13.4;;
51194;SDS011;37259;49.972;19.850;2023-02-15T03:57:40;19.9;;;13.4;;
51194;SDS011;37259;49.972;19.850;2023-02-15T03:58:40;19.9;;;13.4;;
51194;SDS011;37259;49.972;19.850;2023-02-15T03:59:40;19.9;;;13.4;;
51194;SDS011;37259;49.972;19.850;2023-02-15T04:00:40;19.9;;;13.4;;
51194;SDS011;37259;49.972;19.850;2023-02-15T04:01:41;19.9;;;13.4;;
51194;SDS011;37259;49.972;19.850;2023-02-15T04:02:42;19.9;;;13.4;;
51194;SDS011;37259;49.972;19.850;2023-02-15T04:03:41;19.9;;;13.4;;
51194;SDS011;37259;49.972;19.850;2023-02-15T04:04:41;19.9;;;13.4;;
51194;SDS011;37259;49.972;19.850;2023-02-15T04:05:40;19.9;;;13.4;;
51194;SDS011;37259;49.972;19.850;2023-02-15T04:06:40;19.9;;;13.4;;
51194;SDS011;37259;49.972;19.850;2023-02-15T04:07:40;19.9;;;13.4;;
51194;SDS011;37259;49.972;19.850;2023-02-15T04:08:40;19.9;;;13.4;;
51194;SDS011;37259;49.972;19.850;2023-02-15T04:09:40;19.9;;;13.4;;
51194;SDS011;37259;49.972;19.850;2023-02-15T04:10:40;19.9;;;13.4;;
51194;SDS011;37259;49.972;19.850;2023-02-15T04:11:40;19.9;;;13.4;;
51194;SDS011;37259;49.972;19.850;2023-02-15T04:12:40;21.9;;;14.9;;
51194;SDS011;37259;49.972;19.850;2023-02-15T04:13:41;21.9;;;14.9;;
51194;SDS011;37259;49.972;19.850;2023-02-15T04:14:40;21.9;;;14.9;;
51194;SDS011;37259;49.972;19.850;2023-02-15T04:15:40;21.9;;;14.9;;
51194;SDS011;37259;49.972;19.850;2023-02-15T04:16:40;21.9;;;14.9;;
51194;SDS011;37259;49.972;19.850;2023-02-15T04:17:40;21.9;;;14.9;;
51194;SDS011;37259;49.972;19.850;2023-02-15T04:18:40;21.9;;;14.9;;
51194;SDS011;37259;49.972;19.850;2023-02-15T04:19:40;21.9;;;14.9;;
51194;SDS011;37259;49.972;19.850;2023-02-15T04:20:42;21.9;;;14.9;;
51194;SDS011;37259;49.972;19.850;2023-02-15T04:21:40;21.9;;;14.9;;
51194;SDS011;37259;49.972;19.850;2023-02-15T04:22:40;21.9;;;14.9;;
51194;SDS011;37259;49.972;19.850;2023-02-15T04:23:40;21.9;;;14.9;;
51194;SDS011;37259;49.972;19.850;2023-02-15T04:24:40;21.9;;;14.9;;
51194;SDS011;37259;49.972;19.850;2023-02-15T04:25:40;21.9;;;14.9;;
51194;SDS011;37259;49.972;19.850;2023-02-15T04:26:40;21.9;;;14.9;;
51194;SDS011;37259;49.972;19.850;2023-02-15T04:27:41;21.9;;;14.9;;
51194;SDS011;37259;49.972;19.850;2023-02-15T04:28:40;21.9;;;14.9;;
51194;SDS011;37259;49.972;19.850;2023-02-15T04:29:40;21.9;;;14.9;;
51194;SDS011;37259;49.972;19.850;2023-02-15T04:30:40;21.9;;;14.9;;
51194;SDS011;37259;49.972;19.850;2023-02-15T04:31:40;21.9;;;14.9;;
51194;SDS011;37259;49.972;19.850;2023-02-15T04:32:40;21.9;;;14.9;;
51194;SDS011;37259;49.972;19.850;2023-02-15T04:33:40;21.9;;;14.9;;
51194;SDS011;37259;49.972;19.850;2023-02-15T04:34:40;21.9;;;14.9;;
51194;SDS011;37259;49.972;19.850;2023-02-15T04:35:40;21.9;;;14.9;;
51194;SDS011;37259;49.972;19.850;2023-02-15T04:36:40;21.9;;;14.9;;
51194;SDS011;37259;49.972;19.850;2023-02-15T04:37:40;21.9;;;14.9;;
51194;SDS011;37259;49.972;19.850;2023-02-15T04:38:40;21.9;;;14.9;;
51194;SDS011;37259;49.972;19.850;2023-02-15T04:39:40;21.9;;;14.9;;
51194;SDS011;37259;49.972;19.850;2023-02-15T04:40:40;21.9;;;14.9;;
51194;SDS011;37259;49.972;19.850;2023-02-15T04:41:40;21.9;;;14.9;;
51194;SDS011;37259;49.972;19.850;2023-02-15T04:42:40;26.6;;;16.4;;
51194;SDS011;37259;49.972;19.850;2023-02-15T04:43:40;26.6;;;16.4;;
51194;SDS011;37259;49.972;19.850;2023-02-15T04:44:40;26.6;;;16.4;;
51194;SDS011;37259;49.972;19.850;2023-02-15T04:45:40;26.6;;;16.4;;
51194;SDS011;37259;49.972;19.850;2023-02-15T04:46:40;26.6;;;16.4;;
51194;SDS011;37259;49.972;19.850;2023-02-15T04:47:40;26.6;;;16.4;;
51194;SDS011;37259;49.972;19.850;2023-02-15T04:48:40;26.6;;;16.4;;
51194;SDS011;37259;49.972;19.850;2023-02-15T04:49:40;26.6;;;16.4;;
51194;SDS011;37259;49.972;19.850;2023-02-15T04:50:40;26.6;;;16.4;;
51194;SDS011;37259;49.972;19.850;2023-02-15T04:51:40;26.6;;;16.4;;
51194;SDS011;37259;49.972;19.850;2023-02-15T04:52:40;26.6;;;16.4;;
51194;SDS011;37259;49.972;19.850;2023-02-15T04:53:40;26.6;;;16.4;;
51194;SDS011;37259;49.972;19.850;2023-02-15T04:54:40;26.6;;;16.4;;
51194;SDS011;37259;49.972;19.850;2023-02-15T04:55:40;26.6;;;16.4;;
51194;SDS011;37259;49.972;19.850;2023-02-15T04:56:40;26.6;;;16.4;;
51194;SDS011;37259;49.972;19.850;2023-02-15T04:57:40;26.6;;;16.4;;
51194;SDS011;37259;49.972;19.850;2023-02-15T04:58:40;26.6;;;16.4;;
51194;SDS011;37259;49.972;19.850;2023-02-15T04:59:40;26.6;;;16.4;;
51194;SDS011;37259;49.972;19.850;2023-02-15T05:00:40;26.6;;;16.4;;
51194;SDS011;37259;49.972;19.850;2023-02-15T05:01:40;26.6;;;16.4;;
51194;SDS011;37259;49.972;19.850;2023-02-15T05:02:40;26.6;;;16.4;;
51194;SDS011;37259;49.972;19.850;2023-02-15T05:03:40;26.6;;;16.4;;
51194;SDS011;37259;49.972;19.850;2023-02-15T05:04:40;26.6;;;16.4;;
51194;SDS011;37259;49.972;19.850;2023-02-15T05:05:40;26.6;;;16.4;;
51194;SDS011;37259;49.972;19.850;2023-02-15T05:06:40;26.6;;;16.4;;
51194;SDS011;37259;49.972;19.850;2023-02-15T05:07:40;26.6;;;16.4;;
51194;SDS011;37259;49.972;19.850;2023-02-15T05:08:40;26.6;;;16.4;;
51194;SDS011;37259;49.972;19.850;2023-02-15T05:09:40;26.6;;;16.4;;
51194;SDS011;37259;49.972;19.850;2023-02-15T05:10:40;26.6;;;16.4;;
51194;SDS011;37259;49.972;19.850;2023-02-15T05:11:40;26.6;;;16.4;;
51194;SDS011;37259;49.972;19.850;2023-02-15T05:12:40;22.5;;;13.4;;
51194;SDS011;37259;49.972;19.850;2023-02-15T05:13:40;22.5;;;13.4;;
51194;SDS011;37259;49.972;19.850;2023-02-15T05:14:40;22.5;;;13.4;;
51194;SDS011;37259;49.972;19.850;2023-02-15T05:15:40;22.5;;;13.4;;
51194;SDS011;37259;49.972;19.850;2023-02-15T05:16:40;22.5;;;13.4;;
51194;SDS011;37259;49.972;19.850;2023-02-15T05:17:40;22.5;;;13.4;;
51194;SDS011;37259;49.972;19.850;2023-02-15T05:18:40;22.5;;;13.4;;
51194;SDS011;37259;49.972;19.850;2023-02-15T05:19:40;22.5;;;13.4;;
51194;SDS011;37259;49.972;19.850;2023-02-15T05:20:40;22.5;;;13.4;;
51194;SDS011;37259;49.972;19.850;2023-02-15T05:21:40;22.5;;;13.4;;
51194;SDS011;37259;49.972;19.850;2023-02-15T05:22:40;22.5;;;13.4;;
51194;SDS011;37259;49.972;19.850;2023-02-15T05:23:40;22.5;;;13.4;;
51194;SDS011;37259;49.972;19.850;2023-02-15T05:24:40;22.5;;;13.4;;
51194;SDS011;37259;49.972;19.850;2023-02-15T05:25:40;22.5;;;13.4;;
51194;SDS011;37259;49.972;19.850;2023-02-15T05:26:40;22.5;;;13.4;;
51194;SDS011;37259;49.972;19.850;2023-02-15T05:27:40;22.5;;;13.4;;
51194;SDS011;37259;49.972;19.850;2023-02-15T05:28:40;22.5;;;13.4;;
51194;SDS011;37259;49.972;19.850;2023-02-15T05:29:40;22.5;;;13.4;;
51194;SDS011;37259;49.972;19.850;2023-02-15T05:30:40;22.5;;;13.4;;
51194;SDS011;37259;49.972;19.850;2023-02-15T05:31:40;22.5;;;13.4;;
51194;SDS011;37259;49.972;19.850;2023-02-15T05:32:40;22.5;;;13.4;;
51194;SDS011;37259;49.972;19.850;2023-02-15T05:33:40;22.5;;;13.4;;
51194;SDS011;37259;49.972;19.850;2023-02-15T05:34:40;22.5;;;13.4;;
51194;SDS011;37259;49.972;19.850;2023-02-15T05:35:40;22.5;;;13.4;;
51194;SDS011;37259;49.972;19.850;2023-02-15T05:36:40;22.5;;;13.4;;
51194;SDS011;37259;49.972;19.850;2023-02-15T05:37:40;22.5;;;13.4;;
51194;SDS011;37259;49.972;19.850;2023-02-15T05:38:40;22.5;;;13.4;;
51194;SDS011;37259;49.972;19.850;2023-02-15T05:39:40;22.5;;;13.4;;
51194;SDS011;37259;49.972;19.850;2023-02-15T05:40:40;22.5;;;13.4;;
51194;SDS011;37259;49.972;19.850;2023-02-15T05:41:40;22.5;;;13.4;;
51194;SDS011;37259;49.972;19.850;2023-02-15T05:42:40;15.9;;;11.5;;
51194;SDS011;37259;49.972;19.850;2023-02-15T05:43:40;15.9;;;11.5;;
51194;SDS011;37259;49.972;19.850;2023-02-15T05:44:40;15.9;;;11.5;;
51194;SDS011;37259;49.972;19.850;2023-02-15T05:45:43;15.9;;;11.5;;
51194;SDS011;37259;49.972;19.850;2023-02-15T05:46:40;15.9;;;11.5;;
51194;SDS011;37259;49.972;19.850;2023-02-15T05:47:40;15.9;;;11.5;;
51194;SDS011;37259;49.972;19.850;2023-02-15T05:48:40;15.9;;;11.5;;
51194;SDS011;37259;49.972;19.850;2023-02-15T05:49:40;15.9;;;11.5;;
51194;SDS011;37259;49.972;19.850;2023-02-15T05:50:40;15.9;;;11.5;;
51194;SDS011;37259;49.972;19.850;2023-02-15T05:51:40;15.9;;;11.5;;
51194;SDS011;37259;49.972;19.850;2023-02-15T05:52:40;15.9;;;11.5;;
51194;SDS011;37259;49.972;19.850;2023-02-15T05:53:40;15.9;;;11.5;;
51194;SDS011;37259;49.972;19.850;2023-02-15T05:54:40;15.9;;;11.5;;
51194;SDS011;37259;49.972;19.850;2023-02-15T05:55:40;15.9;;;11.5;;
51194;SDS011;37259;49.972;19.850;2023-02-15T05:56:40;15.9;;;11.5;;
51194;SDS011;37259;49.972;19.850;2023-02-15T05:57:40;15.9;;;11.5;;
51194;SDS011;37259;49.972;19.850;2023-02-15T05:58:40;15.9;;;11.5;;